sensor_id;sensor_type;location;lat;lon;timestamp;P1;durP1;ratioP1;P2;durP2;ratioP2
357;SDS011;167;47.558;7.602;2023-02-15T00:01:11;24.77;;;18.40;;
357;SDS011;167;47.558;7.602;2023-02-15T00:03:37;24.40;;;15.63;;
357;SDS011;167;47.558;7.602;2023-02-15T00:06:04;28.40;;;15.60;;
357;SDS011;167;47.558;7.602;2023-02-15T00:08:30;21.47;;;16.33;;
357;SDS011;167;47.558;7.602;2023-02-15T00:14:19;26.43;;;17.73;;
357;SDS011;167;47.558;7.602;2023-02-15T00:16:45;27.60;;;17.20;;
357;SDS011;167;47.558;7.602;2023-02-15T00:19:12;27.47;;;18.37;;
357;SDS011;167;47.558;7.602;2023-02-15T00:21:38;45.23;;;16.93;;
357;SDS011;167;47.558;7.602;2023-02-15T00:24:05;34.17;;;17.20;;
357;SDS011;167;47.558;7.602;2023-02-15T00:26:32;23.93;;;16.67;;
357;SDS011;167;47.558;7.602;2023-02-15T00:28:58;19.33;;;15.50;;
357;SDS011;167;47.558;7.602;2023-02-15T00:31:24;30.93;;;15.10;;
357;SDS011;167;47.558;7.602;2023-02-15T00:33:50;35.87;;;15.80;;
357;SDS011;167;47.558;7.602;2023-02-15T00:36:16;22.00;;;17.87;;
357;SDS011;167;47.558;7.602;2023-02-15T00:38:42;21.23;;;15.80;;
357;SDS011;167;47.558;7.602;2023-02-15T00:41:09;28.00;;;16.30;;
357;SDS011;167;47.558;7.602;2023-02-15T00:43:35;18.83;;;15.30;;
357;SDS011;167;47.558;7.602;2023-02-15T00:46:01;20.13;;;16.13;;
357;SDS011;167;47.558;7.602;2023-02-15T00:48:28;16.73;;;14.77;;
357;SDS011;167;47.558;7.602;2023-02-15T00:50:55;16.53;;;14.63;;
357;SDS011;167;47.558;7.602;2023-02-15T00:53:21;20.37;;;16.03;;
357;SDS011;167;47.558;7.602;2023-02-15T00:55:47;15.77;;;13.73;;
357;SDS011;167;47.558;7.602;2023-02-15T00:58:14;17.63;;;13.10;;
357;SDS011;167;47.558;7.602;2023-02-15T01:00:40;18.17;;;15.20;;
357;SDS011;167;47.558;7.602;2023-02-15T01:03:07;14.53;;;13.00;;
357;SDS011;167;47.558;7.602;2023-02-15T01:05:33;14.87;;;13.10;;
357;SDS011;167;47.558;7.602;2023-02-15T01:07:59;17.90;;;14.63;;
357;SDS011;167;47.558;7.602;2023-02-15T01:10:26;14.93;;;13.37;;
357;SDS011;167;47.558;7.602;2023-02-15T01:12:52;17.47;;;12.50;;
357;SDS011;167;47.558;7.602;2023-02-15T01:15:18;17.60;;;14.77;;
357;SDS011;167;47.558;7.602;2023-02-15T01:17:44;17.70;;;14.00;;
357;SDS011;167;47.558;7.602;2023-02-15T01:20:16;14.40;;;12.90;;
357;SDS011;167;47.558;7.602;2023-02-15T01:22:42;14.27;;;12.90;;
357;SDS011;167;47.558;7.602;2023-02-15T01:25:08;18.60;;;14.63;;
357;SDS011;167;47.558;7.602;2023-02-15T01:27:34;16.13;;;13.80;;
357;SDS011;167;47.558;7.602;2023-02-15T01:30:00;15.57;;;13.77;;
357;SDS011;167;47.558;7.602;2023-02-15T01:32:26;18.93;;;14.63;;
357;SDS011;167;47.558;7.602;2023-02-15T01:34:52;18.83;;;14.83;;
357;SDS011;167;47.558;7.602;2023-02-15T01:37:18;14.00;;;12.60;;
357;SDS011;167;47.558;7.602;2023-02-15T01:39:44;18.37;;;13.73;;
357;SDS011;167;47.558;7.602;2023-02-15T01:42:10;17.37;;;14.43;;
357;SDS011;167;47.558;7.602;2023-02-15T01:47:12;13.83;;;12.27;;
357;SDS011;167;47.558;7.602;2023-02-15T01:49:38;16.00;;;14.30;;
357;SDS011;167;47.558;7.602;2023-02-15T01:52:08;14.80;;;12.80;;
357;SDS011;167;47.558;7.602;2023-02-15T01:54:35;17.63;;;14.10;;
357;SDS011;167;47.558;7.602;2023-02-15T01:57:04;14.03;;;12.57;;
357;SDS011;167;47.558;7.602;2023-02-15T01:59:30;16.90;;;14.30;;
357;SDS011;167;47.558;7.602;2023-02-15T02:01:57;18.07;;;14.63;;
357;SDS011;167;47.558;7.602;2023-02-15T02:04:32;17.70;;;14.43;;
357;SDS011;167;47.558;7.602;2023-02-15T02:07:00;17.67;;;13.30;;
357;SDS011;167;47.558;7.602;2023-02-15T02:09:27;13.97;;;12.53;;
357;SDS011;167;47.558;7.602;2023-02-15T02:11:54;15.07;;;13.43;;
357;SDS011;167;47.558;7.602;2023-02-15T02:14:20;16.20;;;13.10;;
357;SDS011;167;47.558;7.602;2023-02-15T02:16:56;15.93;;;13.40;;
357;SDS011;167;47.558;7.602;2023-02-15T02:22:01;19.40;;;15.20;;
357;SDS011;167;47.558;7.602;2023-02-15T02:24:51;18.67;;;12.93;;
357;SDS011;167;47.558;7.602;2023-02-15T02:35:30;18.00;;;14.33;;
357;SDS011;167;47.558;7.602;2023-02-15T02:38:03;16.80;;;13.23;;
357;SDS011;167;47.558;7.602;2023-02-15T02:40:40;18.67;;;12.77;;
357;SDS011;167;47.558;7.602;2023-02-15T02:43:15;18.80;;;13.63;;
357;SDS011;167;47.558;7.602;2023-02-15T02:45:50;14.30;;;12.67;;
357;SDS011;167;47.558;7.602;2023-02-15T02:48:19;15.70;;;13.13;;
357;SDS011;167;47.558;7.602;2023-02-15T02:50:45;17.77;;;14.10;;
357;SDS011;167;47.558;7.602;2023-02-15T02:53:11;16.77;;;14.37;;
357;SDS011;167;47.558;7.602;2023-02-15T02:55:42;16.13;;;13.07;;
357;SDS011;167;47.558;7.602;2023-02-15T03:00:57;19.87;;;13.20;;
357;SDS011;167;47.558;7.602;2023-02-15T03:03:26;14.07;;;12.23;;
357;SDS011;167;47.558;7.602;2023-02-15T03:05:57;15.47;;;11.30;;
357;SDS011;167;47.558;7.602;2023-02-15T03:08:25;13.17;;;11.20;;
357;SDS011;167;47.558;7.602;2023-02-15T03:10:53;14.30;;;12.23;;
357;SDS011;167;47.558;7.602;2023-02-15T03:13:19;15.87;;;12.57;;
357;SDS011;167;47.558;7.602;2023-02-15T03:15:46;12.60;;;11.17;;
357;SDS011;167;47.558;7.602;2023-02-15T03:19:05;11.97;;;10.60;;
357;SDS011;167;47.558;7.602;2023-02-15T03:21:37;15.80;;;12.37;;
357;SDS011;167;47.558;7.602;2023-02-15T03:24:12;14.93;;;12.10;;
357;SDS011;167;47.558;7.602;2023-02-15T03:26:41;16.47;;;11.60;;
357;SDS011;167;47.558;7.602;2023-02-15T03:29:08;15.30;;;12.07;;
357;SDS011;167;47.558;7.602;2023-02-15T03:31:37;13.60;;;11.83;;
357;SDS011;167;47.558;7.602;2023-02-15T03:34:04;16.73;;;12.90;;
357;SDS011;167;47.558;7.602;2023-02-15T03:39:04;12.60;;;11.27;;
357;SDS011;167;47.558;7.602;2023-02-15T03:41:34;12.17;;;10.30;;
357;SDS011;167;47.558;7.602;2023-02-15T03:44:04;14.50;;;11.70;;
357;SDS011;167;47.558;7.602;2023-02-15T03:46:33;16.40;;;12.57;;
357;SDS011;167;47.558;7.602;2023-02-15T03:49:02;13.47;;;10.77;;
357;SDS011;167;47.558;7.602;2023-02-15T03:51:29;13.77;;;12.27;;
357;SDS011;167;47.558;7.602;2023-02-15T03:54:12;12.00;;;10.80;;
357;SDS011;167;47.558;7.602;2023-02-15T03:56:40;12.70;;;10.40;;
357;SDS011;167;47.558;7.602;2023-02-15T03:59:27;17.17;;;12.37;;
357;SDS011;167;47.558;7.602;2023-02-15T04:02:20;13.17;;;11.77;;
357;SDS011;167;47.558;7.602;2023-02-15T04:04:47;13.90;;;10.77;;
357;SDS011;167;47.558;7.602;2023-02-15T04:07:13;15.10;;;11.40;;
357;SDS011;167;47.558;7.602;2023-02-15T04:09:39;12.50;;;10.57;;
357;SDS011;167;47.558;7.602;2023-02-15T04:12:24;14.63;;;12.63;;
357;SDS011;167;47.558;7.602;2023-02-15T04:14:50;14.47;;;12.60;;
357;SDS011;167;47.558;7.602;2023-02-15T04:17:35;13.30;;;10.80;;
357;SDS011;167;47.558;7.602;2023-02-15T04:20:02;11.50;;;10.20;;
357;SDS011;167;47.558;7.602;2023-02-15T04:22:47;12.93;;;11.63;;
357;SDS011;167;47.558;7.602;2023-02-15T04:25:31;14.43;;;10.50;;
357;SDS011;167;47.558;7.602;2023-02-15T04:27:57;18.07;;;11.80;;
357;SDS011;167;47.558;7.602;2023-02-15T04:30:24;13.13;;;10.47;;
357;SDS011;167;47.558;7.602;2023-02-15T04:32:51;14.60;;;11.37;;
357;SDS011;167;47.558;7.602;2023-02-15T04:35:18;17.90;;;12.93;;
357;SDS011;167;47.558;7.602;2023-02-15T04:37:44;16.93;;;13.00;;
357;SDS011;167;47.558;7.602;2023-02-15T04:40:11;12.73;;;11.43;;
357;SDS011;167;47.558;7.602;2023-02-15T04:42:37;13.70;;;10.17;;
357;SDS011;167;47.558;7.602;2023-02-15T04:45:03;12.97;;;11.10;;
357;SDS011;167;47.558;7.602;2023-02-15T04:47:29;12.87;;;10.57;;
357;SDS011;167;47.558;7.602;2023-02-15T04:49:55;16.73;;;10.40;;
357;SDS011;167;47.558;7.602;2023-02-15T04:52:21;15.27;;;10.93;;
357;SDS011;167;47.558;7.602;2023-02-15T04:54:47;10.83;;;9.50;;
357;SDS011;167;47.558;7.602;2023-02-15T04:57:13;13.10;;;10.87;;
357;SDS011;167;47.558;7.602;2023-02-15T04:59:39;17.40;;;12.60;;
357;SDS011;167;47.558;7.602;2023-02-15T05:02:06;12.37;;;10.10;;
357;SDS011;167;47.558;7.602;2023-02-15T05:04:32;11.90;;;10.63;;
357;SDS011;167;47.558;7.602;2023-02-15T05:06:58;13.37;;;10.57;;
357;SDS011;167;47.558;7.602;2023-02-15T05:09:24;11.47;;;10.00;;
357;SDS011;167;47.558;7.602;2023-02-15T05:11:50;10.40;;;9.03;;
357;SDS011;167;47.558;7.602;2023-02-15T05:14:15;12.37;;;9.80;;
357;SDS011;167;47.558;7.602;2023-02-15T05:16:41;14.57;;;10.97;;
357;SDS011;167;47.558;7.602;2023-02-15T05:19:07;12.07;;;10.87;;
357;SDS011;167;47.558;7.602;2023-02-15T05:21:33;12.70;;;10.77;;
357;SDS011;167;47.558;7.602;2023-02-15T05:23:59;9.90;;;8.90;;
357;SDS011;167;47.558;7.602;2023-02-15T05:26:25;11.23;;;8.70;;
357;SDS011;167;47.558;7.602;2023-02-15T05:29:10;12.80;;;10.30;;
357;SDS011;167;47.558;7.602;2023-02-15T05:31:36;10.50;;;9.00;;
357;SDS011;167;47.558;7.602;2023-02-15T05:34:02;10.40;;;9.23;;
357;SDS011;167;47.558;7.602;2023-02-15T05:36:28;12.60;;;9.80;;
357;SDS011;167;47.558;7.602;2023-02-15T05:38:54;12.30;;;9.23;;
357;SDS011;167;47.558;7.602;2023-02-15T05:41:20;11.00;;;9.70;;
357;SDS011;167;47.558;7.602;2023-02-15T05:43:47;12.13;;;10.87;;
357;SDS011;167;47.558;7.602;2023-02-15T05:46:13;9.83;;;8.93;;
357;SDS011;167;47.558;7.602;2023-02-15T05:48:39;11.00;;;9.43;;
357;SDS011;167;47.558;7.602;2023-02-15T05:51:06;10.97;;;9.70;;
357;SDS011;167;47.558;7.602;2023-02-15T05:53:33;11.77;;;9.57;;
357;SDS011;167;47.558;7.602;2023-02-15T05:56:00;10.70;;;8.20;;
357;SDS011;167;47.558;7.602;2023-02-15T05:58:27;10.13;;;8.87;;
357;SDS011;167;47.558;7.602;2023-02-15T06:00:54;13.80;;;11.03;;
357;SDS011;167;47.558;7.602;2023-02-15T06:03:20;10.57;;;9.47;;
357;SDS011;167;47.558;7.602;2023-02-15T06:05:46;11.67;;;10.50;;
357;SDS011;167;47.558;7.602;2023-02-15T06:08:12;11.70;;;10.60;;
357;SDS011;167;47.558;7.602;2023-02-15T06:10:38;10.87;;;9.53;;
357;SDS011;167;47.558;7.602;2023-02-15T06:13:05;10.63;;;9.50;;
357;SDS011;167;47.558;7.602;2023-02-15T06:15:31;12.60;;;10.43;;
357;SDS011;167;47.558;7.602;2023-02-15T06:17:57;13.73;;;10.77;;
357;SDS011;167;47.558;7.602;2023-02-15T06:20:23;12.93;;;10.57;;
357;SDS011;167;47.558;7.602;2023-02-15T06:22:49;13.40;;;11.50;;
357;SDS011;167;47.558;7.602;2023-02-15T06:25:15;9.60;;;8.70;;
357;SDS011;167;47.558;7.602;2023-02-15T06:27:41;10.70;;;9.57;;
357;SDS011;167;47.558;7.602;2023-02-15T06:30:07;11.10;;;10.07;;
357;SDS011;167;47.558;7.602;2023-02-15T06:32:34;10.03;;;9.03;;
357;SDS011;167;47.558;7.602;2023-02-15T06:35:00;14.00;;;11.07;;
357;SDS011;167;47.558;7.602;2023-02-15T06:37:26;13.37;;;10.50;;
357;SDS011;167;47.558;7.602;2023-02-15T06:39:52;14.37;;;11.37;;
357;SDS011;167;47.558;7.602;2023-02-15T06:42:18;12.50;;;10.20;;
357;SDS011;167;47.558;7.602;2023-02-15T06:44:44;12.47;;;10.50;;
357;SDS011;167;47.558;7.602;2023-02-15T06:47:10;12.53;;;11.20;;
357;SDS011;167;47.558;7.602;2023-02-15T06:49:36;12.60;;;10.40;;
357;SDS011;167;47.558;7.602;2023-02-15T06:52:03;11.03;;;9.30;;
357;SDS011;167;47.558;7.602;2023-02-15T06:54:29;11.80;;;10.60;;
357;SDS011;167;47.558;7.602;2023-02-15T06:56:55;13.37;;;10.53;;
357;SDS011;167;47.558;7.602;2023-02-15T06:59:21;12.43;;;11.13;;
357;SDS011;167;47.558;7.602;2023-02-15T07:01:47;13.10;;;11.37;;
357;SDS011;167;47.558;7.602;2023-02-15T07:04:14;23.83;;;12.80;;
357;SDS011;167;47.558;7.602;2023-02-15T07:06:39;15.00;;;10.13;;
357;SDS011;167;47.558;7.602;2023-02-15T07:09:05;11.50;;;10.30;;
357;SDS011;167;47.558;7.602;2023-02-15T07:11:32;14.80;;;12.30;;
357;SDS011;167;47.558;7.602;2023-02-15T07:14:16;12.63;;;11.33;;
357;SDS011;167;47.558;7.602;2023-02-15T07:16:42;13.47;;;11.53;;
357;SDS011;167;47.558;7.602;2023-02-15T07:19:08;12.53;;;11.20;;
357;SDS011;167;47.558;7.602;2023-02-15T07:21:34;15.50;;;13.13;;
357;SDS011;167;47.558;7.602;2023-02-15T07:24:00;14.83;;;12.53;;
357;SDS011;167;47.558;7.602;2023-02-15T07:26:27;13.87;;;12.40;;
357;SDS011;167;47.558;7.602;2023-02-15T07:28:53;12.17;;;10.97;;
357;SDS011;167;47.558;7.602;2023-02-15T07:31:19;13.70;;;12.40;;
357;SDS011;167;47.558;7.602;2023-02-15T07:33:45;14.80;;;13.30;;
357;SDS011;167;47.558;7.602;2023-02-15T07:36:11;11.80;;;10.40;;
357;SDS011;167;47.558;7.602;2023-02-15T07:38:37;12.07;;;10.87;;
357;SDS011;167;47.558;7.602;2023-02-15T07:41:04;11.27;;;10.20;;
357;SDS011;167;47.558;7.602;2023-02-15T07:43:32;13.07;;;11.60;;
357;SDS011;167;47.558;7.602;2023-02-15T07:45:59;13.13;;;11.80;;
357;SDS011;167;47.558;7.602;2023-02-15T07:48:26;13.40;;;12.00;;
357;SDS011;167;47.558;7.602;2023-02-15T07:50:52;12.80;;;11.50;;
357;SDS011;167;47.558;7.602;2023-02-15T07:53:18;12.23;;;10.70;;
357;SDS011;167;47.558;7.602;2023-02-15T07:55:44;11.93;;;10.80;;
357;SDS011;167;47.558;7.602;2023-02-15T07:58:09;12.20;;;11.10;;
357;SDS011;167;47.558;7.602;2023-02-15T08:00:35;12.07;;;11.00;;
357;SDS011;167;47.558;7.602;2023-02-15T08:03:22;11.97;;;10.87;;
357;SDS011;167;47.558;7.602;2023-02-15T08:05:49;12.17;;;10.90;;
357;SDS011;167;47.558;7.602;2023-02-15T08:08:15;13.53;;;12.27;;
357;SDS011;167;47.558;7.602;2023-02-15T08:13:47;11.93;;;10.93;;
357;SDS011;167;47.558;7.602;2023-02-15T08:17:01;11.87;;;10.77;;
357;SDS011;167;47.558;7.602;2023-02-15T08:19:09;13.97;;;12.57;;
357;SDS011;167;47.558;7.602;2023-02-15T08:21:36;11.73;;;10.63;;
357;SDS011;167;47.558;7.602;2023-02-15T08:24:03;12.43;;;10.47;;
357;SDS011;167;47.558;7.602;2023-02-15T08:26:30;12.30;;;11.20;;
357;SDS011;167;47.558;7.602;2023-02-15T08:28:56;20.93;;;11.60;;
357;SDS011;167;47.558;7.602;2023-02-15T08:31:22;13.30;;;12.10;;
357;SDS011;167;47.558;7.602;2023-02-15T08:33:49;15.93;;;12.70;;
357;SDS011;167;47.558;7.602;2023-02-15T08:36:16;17.40;;;12.07;;
357;SDS011;167;47.558;7.602;2023-02-15T08:38:43;13.23;;;12.03;;
357;SDS011;167;47.558;7.602;2023-02-15T08:43:35;29.27;;;12.60;;
357;SDS011;167;47.558;7.602;2023-02-15T08:46:01;71.23;;;16.23;;
357;SDS011;167;47.558;7.602;2023-02-15T08:48:27;18.60;;;12.20;;
357;SDS011;167;47.558;7.602;2023-02-15T08:50:53;14.60;;;11.23;;
357;SDS011;167;47.558;7.602;2023-02-15T08:53:18;30.17;;;12.50;;
357;SDS011;167;47.558;7.602;2023-02-15T08:55:46;14.53;;;13.10;;
357;SDS011;167;47.558;7.602;2023-02-15T08:58:12;13.53;;;12.23;;
357;SDS011;167;47.558;7.602;2023-02-15T09:00:38;14.60;;;12.43;;
357;SDS011;167;47.558;7.602;2023-02-15T09:03:04;14.37;;;12.20;;
357;SDS011;167;47.558;7.602;2023-02-15T09:05:30;13.50;;;12.17;;
357;SDS011;167;47.558;7.602;2023-02-15T09:07:56;13.43;;;12.23;;
357;SDS011;167;47.558;7.602;2023-02-15T09:10:22;13.83;;;12.50;;
357;SDS011;167;47.558;7.602;2023-02-15T09:12:48;15.00;;;13.70;;
357;SDS011;167;47.558;7.602;2023-02-15T09:15:15;14.83;;;13.40;;
357;SDS011;167;47.558;7.602;2023-02-15T09:17:41;14.70;;;13.40;;
357;SDS011;167;47.558;7.602;2023-02-15T09:20:08;25.87;;;14.77;;
357;SDS011;167;47.558;7.602;2023-02-15T09:22:34;14.33;;;12.60;;
357;SDS011;167;47.558;7.602;2023-02-15T09:24:59;14.60;;;12.77;;
357;SDS011;167;47.558;7.602;2023-02-15T09:27:25;15.07;;;13.77;;
357;SDS011;167;47.558;7.602;2023-02-15T09:29:51;26.57;;;13.23;;
357;SDS011;167;47.558;7.602;2023-02-15T09:32:17;14.07;;;12.87;;
357;SDS011;167;47.558;7.602;2023-02-15T09:34:43;13.60;;;12.60;;
357;SDS011;167;47.558;7.602;2023-02-15T09:37:09;14.23;;;13.00;;
357;SDS011;167;47.558;7.602;2023-02-15T09:39:35;15.13;;;13.93;;
357;SDS011;167;47.558;7.602;2023-02-15T09:42:09;14.97;;;13.80;;
357;SDS011;167;47.558;7.602;2023-02-15T09:59:56;14.57;;;13.23;;
357;SDS011;167;47.558;7.602;2023-02-15T10:02:50;13.93;;;12.83;;
357;SDS011;167;47.558;7.602;2023-02-15T10:10:35;16.90;;;13.50;;
357;SDS011;167;47.558;7.602;2023-02-15T10:13:25;15.50;;;14.23;;
357;SDS011;167;47.558;7.602;2023-02-15T10:26:44;13.23;;;12.10;;
357;SDS011;167;47.558;7.602;2023-02-15T10:31:50;14.00;;;12.80;;
357;SDS011;167;47.558;7.602;2023-02-15T10:39:25;13.90;;;12.70;;
357;SDS011;167;47.558;7.602;2023-02-15T10:44:37;14.00;;;12.90;;
357;SDS011;167;47.558;7.602;2023-02-15T10:47:15;13.80;;;12.60;;
357;SDS011;167;47.558;7.602;2023-02-15T10:49:49;16.57;;;14.67;;
357;SDS011;167;47.558;7.602;2023-02-15T10:52:29;14.40;;;13.13;;
357;SDS011;167;47.558;7.602;2023-02-15T11:00:41;14.53;;;13.17;;
357;SDS011;167;47.558;7.602;2023-02-15T11:08:23;13.57;;;12.47;;
357;SDS011;167;47.558;7.602;2023-02-15T11:10:51;14.40;;;13.20;;
357;SDS011;167;47.558;7.602;2023-02-15T11:13:20;15.63;;;14.43;;
357;SDS011;167;47.558;7.602;2023-02-15T11:15:51;13.90;;;12.73;;
357;SDS011;167;47.558;7.602;2023-02-15T11:18:30;16.13;;;14.83;;
357;SDS011;167;47.558;7.602;2023-02-15T11:20:59;14.30;;;13.20;;
357;SDS011;167;47.558;7.602;2023-02-15T11:23:27;13.93;;;12.73;;
357;SDS011;167;47.558;7.602;2023-02-15T11:25:58;14.13;;;12.97;;
357;SDS011;167;47.558;7.602;2023-02-15T11:28:27;14.00;;;12.80;;
357;SDS011;167;47.558;7.602;2023-02-15T11:30:54;13.83;;;12.63;;
357;SDS011;167;47.558;7.602;2023-02-15T11:33:23;14.50;;;13.40;;
357;SDS011;167;47.558;7.602;2023-02-15T11:35:53;14.17;;;13.03;;
357;SDS011;167;47.558;7.602;2023-02-15T11:38:31;13.83;;;12.67;;
357;SDS011;167;47.558;7.602;2023-02-15T11:41:05;14.73;;;12.83;;
357;SDS011;167;47.558;7.602;2023-02-15T11:46:06;16.00;;;14.70;;
357;SDS011;167;47.558;7.602;2023-02-15T11:48:33;14.63;;;13.43;;
357;SDS011;167;47.558;7.602;2023-02-15T11:50:59;14.77;;;13.40;;
357;SDS011;167;47.558;7.602;2023-02-15T11:53:27;13.63;;;12.53;;
357;SDS011;167;47.558;7.602;2023-02-15T11:55:54;13.93;;;12.83;;
357;SDS011;167;47.558;7.602;2023-02-15T12:03:47;14.47;;;13.27;;
357;SDS011;167;47.558;7.602;2023-02-15T12:06:16;13.53;;;12.53;;
357;SDS011;167;47.558;7.602;2023-02-15T12:08:46;13.07;;;12.00;;
357;SDS011;167;47.558;7.602;2023-02-15T12:11:19;18.83;;;13.83;;
357;SDS011;167;47.558;7.602;2023-02-15T12:13:59;26.83;;;14.50;;
357;SDS011;167;47.558;7.602;2023-02-15T12:16:31;14.30;;;13.20;;
357;SDS011;167;47.558;7.602;2023-02-15T12:18:58;14.20;;;13.00;;
357;SDS011;167;47.558;7.602;2023-02-15T12:21:29;13.40;;;12.40;;
357;SDS011;167;47.558;7.602;2023-02-15T12:24:18;14.37;;;13.10;;
357;SDS011;167;47.558;7.602;2023-02-15T12:26:42;14.37;;;13.27;;
357;SDS011;167;47.558;7.602;2023-02-15T12:29:15;14.40;;;13.10;;
357;SDS011;167;47.558;7.602;2023-02-15T12:31:45;14.23;;;13.07;;
357;SDS011;167;47.558;7.602;2023-02-15T12:34:12;15.20;;;13.80;;
357;SDS011;167;47.558;7.602;2023-02-15T12:36:45;15.00;;;13.80;;
357;SDS011;167;47.558;7.602;2023-02-15T12:39:16;15.00;;;13.80;;
357;SDS011;167;47.558;7.602;2023-02-15T12:41:45;16.20;;;14.83;;
357;SDS011;167;47.558;7.602;2023-02-15T12:44:17;15.53;;;14.30;;
357;SDS011;167;47.558;7.602;2023-02-15T12:49:42;13.80;;;12.70;;
357;SDS011;167;47.558;7.602;2023-02-15T12:54:46;16.40;;;13.60;;
357;SDS011;167;47.558;7.602;2023-02-15T12:57:14;15.67;;;14.37;;
357;SDS011;167;47.558;7.602;2023-02-15T12:59:50;15.30;;;14.00;;
357;SDS011;167;47.558;7.602;2023-02-15T13:02:27;13.80;;;12.70;;
357;SDS011;167;47.558;7.602;2023-02-15T13:04:54;15.63;;;14.13;;
357;SDS011;167;47.558;7.602;2023-02-15T13:07:21;14.10;;;12.90;;
357;SDS011;167;47.558;7.602;2023-02-15T13:09:47;14.90;;;13.50;;
357;SDS011;167;47.558;7.602;2023-02-15T13:12:18;14.20;;;13.07;;
357;SDS011;167;47.558;7.602;2023-02-15T13:14:46;14.50;;;13.30;;
357;SDS011;167;47.558;7.602;2023-02-15T13:17:15;14.80;;;13.50;;
357;SDS011;167;47.558;7.602;2023-02-15T13:19:49;14.13;;;12.93;;
357;SDS011;167;47.558;7.602;2023-02-15T13:22:20;14.10;;;12.80;;
357;SDS011;167;47.558;7.602;2023-02-15T13:24:57;15.37;;;14.07;;
357;SDS011;167;47.558;7.602;2023-02-15T13:27:24;13.33;;;12.03;;
357;SDS011;167;47.558;7.602;2023-02-15T13:29:53;15.73;;;14.43;;
357;SDS011;167;47.558;7.602;2023-02-15T13:32:25;17.00;;;14.10;;
357;SDS011;167;47.558;7.602;2023-02-15T13:34:53;15.93;;;13.67;;
357;SDS011;167;47.558;7.602;2023-02-15T13:40:00;13.93;;;12.87;;
357;SDS011;167;47.558;7.602;2023-02-15T13:42:30;13.87;;;12.77;;
357;SDS011;167;47.558;7.602;2023-02-15T13:52:24;14.83;;;13.53;;
357;SDS011;167;47.558;7.602;2023-02-15T13:55:02;14.27;;;13.07;;
357;SDS011;167;47.558;7.602;2023-02-15T14:10:31;15.23;;;13.93;;
357;SDS011;167;47.558;7.602;2023-02-15T14:13:05;15.27;;;13.70;;
357;SDS011;167;47.558;7.602;2023-02-15T14:15:49;14.40;;;13.13;;
357;SDS011;167;47.558;7.602;2023-02-15T14:18:25;14.30;;;13.00;;
357;SDS011;167;47.558;7.602;2023-02-15T14:31:04;15.93;;;14.50;;
357;SDS011;167;47.558;7.602;2023-02-15T14:33:39;16.07;;;14.40;;
357;SDS011;167;47.558;7.602;2023-02-15T14:36:08;15.40;;;14.00;;
357;SDS011;167;47.558;7.602;2023-02-15T14:38:46;14.80;;;13.33;;
357;SDS011;167;47.558;7.602;2023-02-15T14:44:13;13.97;;;12.60;;
357;SDS011;167;47.558;7.602;2023-02-15T14:46:49;14.33;;;13.03;;
357;SDS011;167;47.558;7.602;2023-02-15T14:49:19;14.40;;;12.93;;
357;SDS011;167;47.558;7.602;2023-02-15T14:56:42;14.30;;;13.00;;
357;SDS011;167;47.558;7.602;2023-02-15T14:59:19;13.93;;;12.73;;
357;SDS011;167;47.558;7.602;2023-02-15T15:01:55;15.07;;;13.57;;
357;SDS011;167;47.558;7.602;2023-02-15T15:09:33;14.07;;;12.70;;
357;SDS011;167;47.558;7.602;2023-02-15T15:12:44;15.10;;;13.67;;
357;SDS011;167;47.558;7.602;2023-02-15T15:14:50;13.73;;;12.43;;
357;SDS011;167;47.558;7.602;2023-02-15T15:20:04;17.93;;;13.90;;
357;SDS011;167;47.558;7.602;2023-02-15T15:22:32;14.20;;;13.00;;
357;SDS011;167;47.558;7.602;2023-02-15T15:35:27;14.60;;;13.30;;
357;SDS011;167;47.558;7.602;2023-02-15T15:48:30;14.13;;;12.87;;
357;SDS011;167;47.558;7.602;2023-02-15T15:50:59;15.00;;;13.70;;
357;SDS011;167;47.558;7.602;2023-02-15T15:53:26;16.50;;;14.90;;
357;SDS011;167;47.558;7.602;2023-02-15T15:55:58;15.73;;;14.10;;
357;SDS011;167;47.558;7.602;2023-02-15T15:58:24;14.57;;;13.07;;
357;SDS011;167;47.558;7.602;2023-02-15T16:00:59;13.53;;;12.33;;
357;SDS011;167;47.558;7.602;2023-02-15T16:03:26;13.77;;;12.37;;
357;SDS011;167;47.558;7.602;2023-02-15T16:05:53;13.83;;;12.60;;
357;SDS011;167;47.558;7.602;2023-02-15T16:08:36;14.20;;;12.90;;
357;SDS011;167;47.558;7.602;2023-02-15T16:11:22;13.50;;;12.30;;
357;SDS011;167;47.558;7.602;2023-02-15T16:13:48;14.37;;;13.00;;
357;SDS011;167;47.558;7.602;2023-02-15T16:16:19;14.80;;;13.30;;
357;SDS011;167;47.558;7.602;2023-02-15T16:18:46;16.20;;;14.50;;
357;SDS011;167;47.558;7.602;2023-02-15T16:21:16;14.17;;;12.67;;
357;SDS011;167;47.558;7.602;2023-02-15T16:23:49;13.30;;;12.00;;
357;SDS011;167;47.558;7.602;2023-02-15T16:29:01;13.47;;;12.17;;
357;SDS011;167;47.558;7.602;2023-02-15T16:31:27;14.07;;;12.57;;
357;SDS011;167;47.558;7.602;2023-02-15T16:33:53;12.60;;;11.53;;
357;SDS011;167;47.558;7.602;2023-02-15T16:36:27;13.63;;;12.20;;
357;SDS011;167;47.558;7.602;2023-02-15T16:41:23;13.50;;;12.10;;
357;SDS011;167;47.558;7.602;2023-02-15T16:43:50;15.50;;;13.97;;
357;SDS011;167;47.558;7.602;2023-02-15T16:48:46;13.60;;;12.30;;
357;SDS011;167;47.558;7.602;2023-02-15T16:51:26;15.37;;;13.73;;
357;SDS011;167;47.558;7.602;2023-02-15T16:53:53;14.70;;;13.20;;
357;SDS011;167;47.558;7.602;2023-02-15T16:56:26;14.53;;;13.00;;
357;SDS011;167;47.558;7.602;2023-02-15T16:58:53;15.00;;;13.43;;
357;SDS011;167;47.558;7.602;2023-02-15T17:01:20;16.23;;;14.63;;
357;SDS011;167;47.558;7.602;2023-02-15T17:03:49;16.67;;;14.97;;
357;SDS011;167;47.558;7.602;2023-02-15T17:06:22;17.97;;;13.80;;
357;SDS011;167;47.558;7.602;2023-02-15T17:08:51;16.80;;;15.00;;
357;SDS011;167;47.558;7.602;2023-02-15T17:11:21;16.77;;;14.93;;
357;SDS011;167;47.558;7.602;2023-02-15T17:14:10;15.87;;;14.33;;
357;SDS011;167;47.558;7.602;2023-02-15T17:16:46;15.70;;;13.43;;
357;SDS011;167;47.558;7.602;2023-02-15T17:19:20;15.57;;;14.00;;
357;SDS011;167;47.558;7.602;2023-02-15T17:21:51;17.17;;;14.30;;
357;SDS011;167;47.558;7.602;2023-02-15T17:24:18;23.20;;;16.20;;
357;SDS011;167;47.558;7.602;2023-02-15T17:26:48;16.50;;;14.87;;
357;SDS011;167;47.558;7.602;2023-02-15T17:31:46;16.90;;;15.10;;
357;SDS011;167;47.558;7.602;2023-02-15T17:34:40;16.73;;;15.17;;
357;SDS011;167;47.558;7.602;2023-02-15T17:36:59;15.83;;;14.27;;
357;SDS011;167;47.558;7.602;2023-02-15T17:39:27;17.60;;;15.80;;
357;SDS011;167;47.558;7.602;2023-02-15T17:41:53;17.50;;;15.40;;
357;SDS011;167;47.558;7.602;2023-02-15T17:44:19;17.37;;;15.23;;
357;SDS011;167;47.558;7.602;2023-02-15T17:46:45;17.00;;;14.60;;
357;SDS011;167;47.558;7.602;2023-02-15T17:49:14;17.80;;;16.00;;
357;SDS011;167;47.558;7.602;2023-02-15T17:51:44;19.70;;;16.70;;
357;SDS011;167;47.558;7.602;2023-02-15T17:54:10;19.53;;;17.53;;
357;SDS011;167;47.558;7.602;2023-02-15T17:56:54;19.13;;;16.80;;
357;SDS011;167;47.558;7.602;2023-02-15T17:59:20;15.63;;;14.03;;
357;SDS011;167;47.558;7.602;2023-02-15T18:01:48;20.70;;;16.50;;
357;SDS011;167;47.558;7.602;2023-02-15T18:04:33;18.80;;;17.00;;
357;SDS011;167;47.558;7.602;2023-02-15T18:07:19;18.73;;;16.73;;
357;SDS011;167;47.558;7.602;2023-02-15T18:10:15;18.03;;;16.13;;
357;SDS011;167;47.558;7.602;2023-02-15T18:13:00;17.90;;;16.03;;
357;SDS011;167;47.558;7.602;2023-02-15T18:15:26;18.20;;;16.17;;
357;SDS011;167;47.558;7.602;2023-02-15T18:17:52;24.27;;;21.57;;
357;SDS011;167;47.558;7.602;2023-02-15T18:20:23;39.20;;;29.47;;
357;SDS011;167;47.558;7.602;2023-02-15T18:22:50;20.83;;;17.27;;
357;SDS011;167;47.558;7.602;2023-02-15T18:25:18;19.80;;;17.70;;